Time;durP1;ratioP1;P1;durP2;ratioP2;P2;SDS_P1;SDS_P2;PMS_P1;PMS_P2;Temp;Humidity;BMP_temperature;BMP_pressure;BME280_temperature;BME280_humidity;BME280_pressure;Samples;Min_cycle;Max_cycle;Signal;HPM_P1;HPM_P2
2023/04/25 00:02:00;;;;;;;14.93;10.40;;;;;;;9.30;100.00;98369.72;5070038;28;20261;-78
2023/04/25 00:04:29;;;;;;;18.60;10.50;;;;;;;9.30;100.00;98367.91;5072716;28;20236;-78
2023/04/25 00:06:58;;;;;;;17.10;10.53;;;;;;;9.32;100.00;98363.34;5072495;28;20234;-78
2023/04/25 00:09:27;;;;;;;15.67;10.90;;;;;;;9.30;100.00;98370.56;5067140;28;20196;-78
2023/04/25 00:11:57;;;;;;;17.03;10.70;;;;;;;9.34;100.00;98358.81;5072539;28;20222;-78
2023/04/25 00:14:25;;;;;;;15.70;10.40;;;;;;;9.24;100.00;98370.13;5072553;28;20196;-78
2023/04/25 00:16:54;;;;;;;12.60;10.07;;;;;;;9.29;100.00;98373.31;5067294;28;20254;-78
2023/04/25 00:19:22;;;;;;;14.33;10.33;;;;;;;9.02;100.00;98371.66;5071731;28;20200;-79
2023/04/25 00:21:50;;;;;;;16.60;9.77;;;;;;;9.01;100.00;98364.69;5071089;28;20553;-78
2023/04/25 00:24:18;;;;;;;15.80;10.37;;;;;;;8.89;100.00;98365.56;5072633;28;20708;-78
2023/04/25 00:26:47;;;;;;;11.83;9.40;;;;;;;9.07;100.00;98369.56;5072214;28;20196;-78
2023/04/25 00:29:17;;;;;;;13.20;9.03;;;;;;;9.00;100.00;98375.38;5073631;28;20225;-78
2023/04/25 00:31:45;;;;;;;15.93;9.83;;;;;;;8.90;100.00;98372.53;5070916;28;20261;-78
2023/04/25 00:34:13;;;;;;;14.40;10.03;;;;;;;9.08;100.00;98375.69;5076388;28;20540;-78
2023/04/25 00:36:41;;;;;;;10.83;8.73;;;;;;;8.96;100.00;98369.44;5072819;28;20189;-78
2023/04/25 00:39:10;;;;;;;13.30;9.17;;;;;;;9.05;100.00;98367.97;5075235;28;20199;-78
2023/04/25 00:41:38;;;;;;;15.17;9.43;;;;;;;9.10;100.00;98364.06;5073697;28;20415;-78
2023/04/25 00:44:06;;;;;;;14.17;8.87;;;;;;;9.13;100.00;98366.47;5071671;28;20200;-78
2023/04/25 00:46:37;;;;;;;12.73;8.37;;;;;;;9.17;100.00;98361.81;5076172;28;20203;-78
2023/04/25 00:49:05;;;;;;;15.10;8.97;;;;;;;9.05;100.00;98360.03;5076223;28;20200;-78
2023/04/25 00:51:33;;;;;;;14.80;8.53;;;;;;;9.08;100.00;98365.13;5072121;28;20212;-78
2023/04/25 00:54:02;;;;;;;10.57;7.90;;;;;;;9.11;100.00;98362.25;5068357;28;20204;-78
2023/04/25 00:56:30;;;;;;;10.87;7.67;;;;;;;9.00;100.00;98359.53;5071121;28;20204;-78
2023/04/25 00:58:59;;;;;;;13.23;8.80;;;;;;;9.04;100.00;98353.06;5070203;28;20212;-78
2023/04/25 01:01:27;;;;;;;12.33;8.90;;;;;;;9.03;100.00;98354.88;5067909;28;20203;-78
2023/04/25 01:03:59;;;;;;;13.40;9.13;;;;;;;8.87;100.00;98351.59;5072157;28;20192;-78
2023/04/25 01:06:28;;;;;;;15.20;8.67;;;;;;;8.94;100.00;98349.38;5070377;28;20212;-78
2023/04/25 01:08:57;;;;;;;12.93;8.37;;;;;;;8.89;100.00;98347.94;5071818;28;20336;-78
2023/04/25 01:11:25;;;;;;;13.13;8.30;;;;;;;8.93;100.00;98342.41;5067552;28;20220;-78
2023/04/25 01:13:53;;;;;;;13.67;8.20;;;;;;;8.84;100.00;98347.38;5072882;28;20200;-78
2023/04/25 01:16:23;;;;;;;13.27;8.03;;;;;;;8.82;100.00;98348.47;5072756;28;20192;-78
2023/04/25 01:18:52;;;;;;;14.27;7.20;;;;;;;8.73;100.00;98346.47;5075617;28;20247;-78
2023/04/25 01:21:22;;;;;;;9.03;7.00;;;;;;;8.66;100.00;98342.53;5067946;28;20200;-78
2023/04/25 01:23:50;;;;;;;11.07;6.70;;;;;;;8.65;100.00;98344.34;5070712;28;20257;-78
2023/04/25 01:26:21;;;;;;;11.47;7.30;;;;;;;8.66;100.00;98342.53;5071267;28;20201;-78
2023/04/25 01:28:50;;;;;;;12.93;7.10;;;;;;;8.65;100.00;98348.78;5070193;28;20250;-78
2023/04/25 01:31:19;;;;;;;9.83;6.27;;;;;;;8.70;100.00;98338.75;5065982;28;20224;-78
2023/04/25 01:33:48;;;;;;;10.60;6.77;;;;;;;8.59;100.00;98342.16;5072107;28;20200;-78
2023/04/25 01:36:18;;;;;;;11.07;6.87;;;;;;;8.40;100.00;98342.56;5071857;28;20197;-78
2023/04/25 01:38:48;;;;;;;10.17;6.70;;;;;;;8.37;100.00;98342.75;5073991;28;20240;-78
2023/04/25 01:41:17;;;;;;;10.13;5.93;;;;;;;8.33;100.00;98343.88;5075400;28;20246;-78
2023/04/25 01:43:46;;;;;;;9.80;6.93;;;;;;;8.24;100.00;98347.16;5072561;28;20206;-78
2023/04/25 01:46:14;;;;;;;9.87;5.50;;;;;;;8.22;100.00;98346.41;5066957;28;20206;-78
2023/04/25 01:48:42;;;;;;;6.30;5.00;;;;;;;8.28;100.00;98346.81;5069373;28;20207;-78
2023/04/25 01:51:11;;;;;;;10.23;5.10;;;;;;;8.23;100.00;98346.31;5075160;28;20221;-78
2023/04/25 01:53:39;;;;;;;13.13;5.57;;;;;;;8.19;100.00;98352.72;5069633;28;20674;-78
2023/04/25 01:56:09;;;;;;;8.53;5.10;;;;;;;8.13;100.00;98350.50;5071398;28;20268;-78
2023/04/25 01:58:37;;;;;;;8.37;5.03;;;;;;;8.10;100.00;98344.56;5074755;28;20239;-78
2023/04/25 02:01:06;;;;;;;6.47;4.00;;;;;;;8.06;100.00;98346.59;5075000;28;20196;-78
2023/04/25 02:03:35;;;;;;;9.53;4.63;;;;;;;8.05;100.00;98342.25;5070115;28;20246;-78
2023/04/25 02:06:03;;;;;;;6.97;4.23;;;;;;;7.93;100.00;98333.38;5066380;28;20361;-77
2023/04/25 02:08:32;;;;;;;7.97;4.50;;;;;;;7.89;100.00;98337.16;5038808;28;20655;-78
2023/04/25 02:11:00;;;;;;;8.33;4.30;;;;;;;7.94;100.00;98344.78;5070353;28;20784;-78
2023/04/25 02:13:29;;;;;;;6.33;3.77;;;;;;;8.02;100.00;98347.75;5074903;28;20193;-78
2023/04/25 02:15:58;;;;;;;8.87;4.47;;;;;;;8.02;100.00;98340.69;5074541;28;20242;-78
2023/04/25 02:18:27;;;;;;;7.70;4.33;;;;;;;7.93;100.00;98345.72;5071608;28;20196;-78
2023/04/25 02:20:55;;;;;;;8.43;4.53;;;;;;;7.93;100.00;98338.66;5065243;28;20204;-78
2023/04/25 02:23:23;;;;;;;8.90;4.10;;;;;;;7.76;100.00;98341.56;5069453;28;20250;-78
2023/04/25 02:25:52;;;;;;;9.37;4.13;;;;;;;7.85;100.00;98345.38;5074349;28;20200;-78
2023/04/25 02:28:21;;;;;;;9.37;4.20;;;;;;;7.82;100.00;98345.59;5068088;28;20193;-78
2023/04/25 02:30:51;;;;;;;7.67;4.63;;;;;;;7.76;100.00;98346.81;5072702;28;20227;-78
2023/04/25 02:33:20;;;;;;;7.83;4.23;;;;;;;7.70;100.00;98348.06;5078004;28;20220;-78
2023/04/25 02:35:49;;;;;;;7.70;4.30;;;;;;;7.70;100.00;98349.84;5066422;28;20231;-78
2023/04/25 02:38:17;;;;;;;7.73;4.20;;;;;;;7.47;100.00;98346.09;5059121;28;20208;-78
2023/04/25 02:40:45;;;;;;;9.33;4.60;;;;;;;7.39;100.00;98349.22;5068386;28;20208;-78
2023/04/25 02:43:13;;;;;;;9.57;5.20;;;;;;;7.28;100.00;98350.84;5073791;28;20196;-78
2023/04/25 02:45:42;;;;;;;10.73;4.60;;;;;;;7.17;100.00;98349.72;5070911;28;20200;-78
2023/04/25 02:48:11;;;;;;;8.13;4.60;;;;;;;7.13;100.00;98347.38;5071004;28;20204;-78
2023/04/25 02:50:39;;;;;;;10.97;4.60;;;;;;;7.11;100.00;98347.47;5070156;28;20247;-78
2023/04/25 02:53:08;;;;;;;7.53;4.50;;;;;;;7.05;100.00;98352.31;5069607;28;20220;-78
2023/04/25 02:55:36;;;;;;;9.10;4.77;;;;;;;7.09;100.00;98345.88;5066371;28;20204;-78
2023/04/25 02:58:04;;;;;;;9.63;4.63;;;;;;;7.10;100.00;98348.41;5070945;28;20197;-81
2023/04/25 03:00:33;;;;;;;8.40;4.13;;;;;;;6.96;100.00;98358.13;5073664;28;20196;-78
2023/04/25 03:03:01;;;;;;;8.23;3.97;;;;;;;6.97;100.00;98355.41;5070707;28;20192;-78
2023/04/25 03:05:31;;;;;;;9.70;4.77;;;;;;;6.83;100.00;98358.88;5069103;28;20239;-78
2023/04/25 03:07:59;;;;;;;8.70;4.30;;;;;;;6.75;100.00;98353.22;5072247;28;20196;-78
2023/04/25 03:10:27;;;;;;;10.53;4.20;;;;;;;6.77;100.00;98363.69;5070569;28;20200;-78
2023/04/25 03:12:56;;;;;;;9.37;4.43;;;;;;;6.71;100.00;98364.06;5073273;28;20303;-78
2023/04/25 03:15:24;;;;;;;12.27;4.73;;;;;;;6.55;100.00;98364.97;5067816;28;20196;-78
2023/04/25 03:17:52;;;;;;;10.87;4.47;;;;;;;6.55;100.00;98359.72;5073302;28;20204;-78
2023/04/25 03:20:20;;;;;;;10.43;5.13;;;;;;;6.52;100.00;98365.16;5034636;28;20196;-78
2023/04/25 03:22:52;;;;;;;11.77;4.33;;;;;;;6.40;100.00;98365.06;5069204;28;20243;-78
2023/04/25 03:25:20;;;;;;;13.90;4.80;;;;;;;6.32;100.00;98365.53;5072901;28;20196;-78
2023/04/25 03:27:48;;;;;;;12.13;5.13;;;;;;;6.34;100.00;98374.16;5070388;28;20189;-78
2023/04/25 03:30:17;;;;;;;10.77;4.33;;;;;;;6.27;100.00;98372.81;5061574;28;20204;-78
2023/04/25 03:32:45;;;;;;;9.97;5.07;;;;;;;6.23;100.00;98372.16;5070237;28;20216;-78
2023/04/25 03:35:14;;;;;;;8.37;4.50;;;;;;;6.22;100.00;98374.88;5073159;28;20188;-78
2023/04/25 03:37:45;;;;;;;11.07;4.43;;;;;;;6.15;100.00;98373.56;5063841;28;20208;-78
2023/04/25 03:40:15;;;;;;;10.50;4.60;;;;;;;6.05;100.00;98380.28;5064770;28;20197;-78
2023/04/25 03:42:43;;;;;;;10.10;4.10;;;;;;;5.99;100.00;98382.34;5065956;28;20247;-78
2023/04/25 03:45:12;;;;;;;8.83;4.17;;;;;;;5.94;100.00;98380.91;5066116;28;20200;-78
2023/04/25 03:47:40;;;;;;;11.00;4.57;;;;;;;5.98;100.00;98379.78;5069810;28;20208;-78
2023/04/25 03:50:10;;;;;;;8.23;4.93;;;;;;;5.92;100.00;98380.16;5067692;28;20204;-78
2023/04/25 03:52:38;;;;;;;10.33;4.53;;;;;;;5.90;100.00;98385.50;5062835;28;20212;-78
2023/04/25 03:55:07;;;;;;;7.33;4.63;;;;;;;5.89;100.00;98375.91;5072243;28;20200;-78
2023/04/25 03:57:37;;;;;;;7.77;3.93;;;;;;;5.88;100.00;98378.59;5072852;28;20195;-78
2023/04/25 04:00:07;;;;;;;9.07;3.70;;;;;;;5.90;100.00;98379.38;5072703;28;20193;-78
2023/04/25 04:02:37;;;;;;;11.77;4.27;;;;;;;5.83;100.00;98392.00;5069528;28;20654;-78
2023/04/25 04:05:06;;;;;;;7.97;3.93;;;;;;;5.92;100.00;98393.28;5072445;28;20218;-78
2023/04/25 04:07:39;;;;;;;8.13;4.10;;;;;;;5.91;100.00;98387.19;5071290;28;20272;-78
2023/04/25 04:10:08;;;;;;;8.73;4.27;;;;;;;5.96;100.00;98387.75;5066928;28;20204;-78
2023/04/25 04:12:38;;;;;;;10.63;4.77;;;;;;;6.01;100.00;98390.13;5069663;28;20220;-78
2023/04/25 04:15:07;;;;;;;8.70;5.03;;;;;;;6.02;100.00;98391.81;5067150;28;20200;-78
2023/04/25 04:17:35;;;;;;;8.57;3.93;;;;;;;6.03;100.00;98388.25;5069733;28;20192;-78
2023/04/25 04:20:05;;;;;;;8.90;3.63;;;;;;;5.99;100.00;98392.88;5067481;28;20207;-78
2023/04/25 04:22:33;;;;;;;7.97;4.30;;;;;;;5.95;100.00;98395.75;5065916;28;20200;-78
2023/04/25 04:25:02;;;;;;;8.90;3.60;;;;;;;5.98;100.00;98393.78;5072792;28;20695;-78
2023/04/25 04:27:30;;;;;;;6.20;3.23;;;;;;;5.97;100.00;98399.97;5069368;28;20188;-78
2023/04/25 04:30:00;;;;;;;7.73;3.90;;;;;;;6.00;100.00;98397.19;5072421;28;20195;-78
2023/04/25 04:32:30;;;;;;;8.13;3.90;;;;;;;5.77;100.00;98400.22;5072346;28;20204;-78
2023/04/25 04:34:59;;;;;;;8.57;3.90;;;;;;;6.04;100.00;98397.84;5072224;28;20203;-78
2023/04/25 04:37:27;;;;;;;8.07;4.17;;;;;;;6.07;100.00;98405.53;5067002;28;20196;-78
2023/04/25 04:39:56;;;;;;;7.63;3.87;;;;;;;6.07;100.00;98405.53;5072526;28;20200;-78
2023/04/25 04:42:25;;;;;;;8.63;4.03;;;;;;;6.06;100.00;98403.00;5072183;28;20200;-78
2023/04/25 04:44:54;;;;;;;6.30;3.80;;;;;;;6.11;100.00;98399.19;5072321;28;20192;-78
2023/04/25 04:47:25;;;;;;;6.10;3.83;;;;;;;6.07;100.00;98400.28;5065969;28;20212;-78
2023/04/25 04:49:53;;;;;;;8.13;3.87;;;;;;;6.03;100.00;98411.91;5065571;28;20196;-78
2023/04/25 04:52:21;;;;;;;6.63;3.57;;;;;;;6.08;100.00;98404.63;5071063;28;20301;-78
2023/04/25 04:54:50;;;;;;;6.80;3.97;;;;;;;6.03;100.00;98402.25;5068942;28;20216;-78
2023/04/25 04:57:18;;;;;;;9.90;4.13;;;;;;;6.14;100.00;98406.88;5069274;28;20250;-78
2023/04/25 04:59:46;;;;;;;6.03;3.60;;;;;;;6.11;100.00;98412.31;5069306;28;20211;-78
2023/04/25 05:02:14;;;;;;;6.67;3.87;;;;;;;6.07;100.00;98418.69;5072101;28;20296;-78
2023/04/25 05:04:44;;;;;;;7.80;4.13;;;;;;;6.18;100.00;98424.19;5068049;28;20278;-78
2023/04/25 05:07:13;;;;;;;6.03;4.37;;;;;;;6.24;100.00;98423.81;5071885;28;20204;-78
2023/04/25 05:09:41;;;;;;;7.17;4.33;;;;;;;6.31;100.00;98429.56;5075584;28;20260;-78
2023/04/25 05:12:10;;;;;;;7.17;4.10;;;;;;;6.39;100.00;98429.13;5072503;28;20253;-78
2023/04/25 05:14:38;;;;;;;10.03;4.40;;;;;;;6.45;100.00;98431.38;5075492;28;20638;-78
2023/04/25 05:17:08;;;;;;;8.17;4.20;;;;;;;6.46;100.00;98431.28;5075737;28;20204;-78
2023/04/25 05:19:36;;;;;;;6.93;4.17;;;;;;;6.51;100.00;98434.50;5070051;28;20200;-77
2023/04/25 05:22:06;;;;;;;7.80;4.60;;;;;;;6.60;100.00;98433.13;5071011;28;20196;-78
2023/04/25 05:24:34;;;;;;;8.87;4.43;;;;;;;6.62;100.00;98431.22;5075766;28;20193;-78
2023/04/25 05:27:02;;;;;;;8.80;4.23;;;;;;;6.59;100.00;98431.44;4991448;28;20285;-78
2023/04/25 05:29:30;;;;;;;9.37;4.40;;;;;;;6.63;100.00;98429.44;4994025;28;20306;-78
2023/04/25 05:31:58;;;;;;;11.67;3.90;;;;;;;6.57;100.00;98441.19;4993796;28;20199;-78
2023/04/25 05:34:27;;;;;;;9.67;4.73;;;;;;;6.56;100.00;98437.72;4993678;28;20222;-79
2023/04/25 05:36:55;;;;;;;7.13;4.13;;;;;;;6.60;100.00;98441.00;4993693;28;20480;-78
2023/04/25 05:39:25;;;;;;;9.10;4.40;;;;;;;6.66;100.00;98443.28;4992621;28;20215;-77
2023/04/25 05:41:53;;;;;;;8.20;4.87;;;;;;;6.65;100.00;98438.94;4988690;28;20215;-78
2023/04/25 05:44:21;;;;;;;7.87;4.20;;;;;;;6.78;100.00;98439.06;4993807;28;20201;-78
2023/04/25 05:46:49;;;;;;;6.73;4.30;;;;;;;6.88;100.00;98445.47;4993461;28;20667;-78
2023/04/25 05:49:17;;;;;;;6.67;4.30;;;;;;;6.82;100.00;98451.94;4993545;28;20206;-78
2023/04/25 05:51:46;;;;;;;12.50;4.97;;;;;;;6.92;100.00;98449.59;5028066;28;20219;-77
2023/04/25 05:54:14;;;;;;;10.63;4.63;;;;;;;6.96;100.00;98455.53;5073565;28;20216;-78
2023/04/25 05:56:44;;;;;;;11.03;4.60;;;;;;;6.94;100.00;98452.13;5072056;28;20346;-78
2023/04/25 05:59:12;;;;;;;8.33;4.10;;;;;;;6.84;100.00;98450.06;5068829;28;20208;-78
2023/04/25 06:01:41;;;;;;;7.13;4.00;;;;;;;6.81;100.00;98447.63;5072048;28;20277;-78
2023/04/25 06:04:09;;;;;;;7.33;4.13;;;;;;;6.87;100.00;98457.78;5074520;28;20745;-78
2023/04/25 06:06:38;;;;;;;8.90;4.87;;;;;;;6.88;100.00;98467.38;5070320;28;20651;-78
2023/04/25 06:09:06;;;;;;;7.17;4.53;;;;;;;6.87;100.00;98465.69;5073820;28;20189;-77
2023/04/25 06:11:34;;;;;;;8.70;4.03;;;;;;;6.90;100.00;98469.91;5068565;28;20208;-77
2023/04/25 06:14:04;;;;;;;10.60;4.77;;;;;;;6.96;100.00;98469.53;5068908;28;20216;-78
2023/04/25 06:16:32;;;;;;;8.77;4.70;;;;;;;6.97;100.00;98465.97;5068510;28;20245;-78
2023/04/25 06:19:01;;;;;;;7.07;4.50;;;;;;;6.95;100.00;98469.63;5022357;28;20212;-78
2023/04/25 06:21:29;;;;;;;9.93;4.77;;;;;;;6.93;100.00;98472.34;5071619;28;20209;-78
2023/04/25 06:23:57;;;;;;;8.23;4.57;;;;;;;7.03;100.00;98472.63;5069303;28;20196;-78
2023/04/25 06:26:25;;;;;;;9.03;4.80;;;;;;;7.06;100.00;98473.31;5065497;28;20242;-78
2023/04/25 06:28:53;;;;;;;7.97;4.40;;;;;;;7.16;100.00;98478.88;5066842;28;20184;-78
2023/04/25 06:31:23;;;;;;;7.03;4.47;;;;;;;7.30;100.00;98470.94;5067587;28;20204;-78
2023/04/25 06:33:54;;;;;;;9.37;5.03;;;;;;;7.41;100.00;98475.56;5074335;28;20247;-78
2023/04/25 06:36:24;;;;;;;11.83;5.30;;;;;;;7.45;100.00;98477.91;5071731;28;20192;-78
2023/04/25 06:38:53;;;;;;;10.23;4.70;;;;;;;7.46;100.00;98479.59;5070033;28;20200;-78
2023/04/25 06:41:21;;;;;;;10.47;4.93;;;;;;;7.53;100.00;98474.81;5070238;28;20192;-78
2023/04/25 06:43:49;;;;;;;10.43;5.30;;;;;;;7.59;100.00;98474.41;5066592;28;20261;-78
2023/04/25 06:46:17;;;;;;;10.30;5.73;;;;;;;7.40;100.00;98474.72;5073861;28;20250;-78
2023/04/25 06:48:47;;;;;;;7.97;5.30;;;;;;;7.41;100.00;98476.41;5074019;28;20184;-78
2023/04/25 06:51:16;;;;;;;6.67;4.50;;;;;;;7.48;100.00;98479.50;5073951;28;20204;-78
2023/04/25 06:53:44;;;;;;;6.97;5.00;;;;;;;7.49;100.00;98480.34;5069622;28;20204;-78
2023/04/25 06:56:13;;;;;;;9.67;5.07;;;;;;;7.46;100.00;98484.88;5074062;28;20197;-78
2023/04/25 06:58:41;;;;;;;8.23;4.97;;;;;;;7.44;100.00;98488.56;5073942;28;20196;-78
2023/04/25 07:01:09;;;;;;;10.00;5.00;;;;;;;7.36;100.00;98490.81;5070593;28;20197;-78
2023/04/25 07:03:37;;;;;;;7.53;4.90;;;;;;;7.56;100.00;98493.06;5070823;28;20201;-78
2023/04/25 07:06:08;;;;;;;7.37;4.93;;;;;;;7.82;100.00;98485.31;5071023;28;20745;-78
2023/04/25 07:08:36;;;;;;;7.50;5.37;;;;;;;8.09;100.00;98474.75;5072168;28;20192;-78
2023/04/25 07:11:04;;;;;;;8.83;5.10;;;;;;;8.29;100.00;98475.13;5070644;28;20237;-78
2023/04/25 07:13:32;;;;;;;11.00;4.60;;;;;;;8.38;100.00;98472.88;5073737;28;20246;-78
2023/04/25 07:16:01;;;;;;;10.07;5.50;;;;;;;8.50;100.00;98486.13;5067114;28;20285;-78
2023/04/25 07:18:29;;;;;;;8.57;5.50;;;;;;;8.50;100.00;98480.00;5070508;28;20224;-78
2023/04/25 07:20:57;;;;;;;7.93;4.63;;;;;;;8.55;100.00;98491.09;5067812;28;20277;-78
2023/04/25 07:23:27;;;;;;;11.60;5.17;;;;;;;8.52;100.00;98484.22;5069331;28;20207;-78
2023/04/25 07:25:55;;;;;;;7.87;5.00;;;;;;;8.52;100.00;98491.31;5065877;28;20196;-78
2023/04/25 07:28:24;;;;;;;7.57;4.47;;;;;;;8.65;100.00;98483.41;5066928;28;20204;-78
2023/04/25 07:30:52;;;;;;;6.83;4.63;;;;;;;8.87;100.00;98483.63;5073146;28;20212;-78
2023/04/25 07:33:21;;;;;;;9.20;5.07;;;;;;;8.97;100.00;98479.41;5073122;28;20204;-78
2023/04/25 07:35:49;;;;;;;9.40;5.00;;;;;;;9.26;100.00;98487.13;5068546;28;20287;-78
2023/04/25 07:38:17;;;;;;;9.50;4.90;;;;;;;9.48;100.00;98482.06;5068084;28;20196;-78
2023/04/25 07:40:48;;;;;;;7.80;3.70;;;;;;;9.20;100.00;98485.78;5070542;28;20257;-78
2023/04/25 07:43:16;;;;;;;6.90;4.23;;;;;;;9.28;100.00;98488.75;5073058;28;20204;-78
2023/04/25 07:45:44;;;;;;;7.90;3.83;;;;;;;9.32;100.00;98495.50;5064159;28;20253;-78
2023/04/25 07:48:17;;;;;;;5.33;3.40;;;;;;;9.40;100.00;98489.69;5072793;28;20202;-78
2023/04/25 07:50:45;;;;;;;6.93;4.10;;;;;;;9.49;100.00;98483.75;5063581;28;20192;-78
2023/04/25 07:53:14;;;;;;;5.97;3.70;;;;;;;9.84;100.00;98491.78;5071510;28;20224;-78
2023/04/25 07:55:42;;;;;;;9.37;4.00;;;;;;;10.14;100.00;98494.06;5072765;28;20277;-79
2023/04/25 07:58:13;;;;;;;5.37;3.70;;;;;;;9.99;100.00;98497.81;5073168;28;20233;-79
2023/04/25 08:00:42;;;;;;;6.60;3.47;;;;;;;10.19;100.00;98499.00;5070027;28;20203;-78
2023/04/25 08:03:11;;;;;;;5.43;3.67;;;;;;;10.07;100.00;98494.59;5071296;28;20204;-78
2023/04/25 08:05:39;;;;;;;6.27;3.17;;;;;;;10.08;100.00;98506.88;5073135;28;20216;-79
2023/04/25 08:08:08;;;;;;;6.43;3.40;;;;;;;9.91;100.00;98508.06;5075194;28;20231;-78
2023/04/25 08:10:36;;;;;;;8.70;3.77;;;;;;;9.52;100.00;98499.38;5072741;28;20348;-78
2023/04/25 08:13:04;;;;;;;8.17;3.30;;;;;;;9.44;100.00;98518.41;5076520;28;20195;-78
2023/04/25 08:15:34;;;;;;;6.17;2.90;;;;;;;9.59;100.00;98515.66;5070769;28;20695;-78
2023/04/25 08:18:04;;;;;;;5.37;3.07;;;;;;;9.79;100.00;98525.69;5069663;28;20279;-78
2023/04/25 08:20:32;;;;;;;5.63;2.97;;;;;;;10.04;100.00;98520.34;5068954;28;20283;-78
2023/04/25 08:23:01;;;;;;;5.67;2.90;;;;;;;10.29;100.00;98523.88;5062899;28;20195;-78
2023/04/25 08:25:29;;;;;;;4.73;2.50;;;;;;;10.30;100.00;98536.97;5072625;28;20208;-78
2023/04/25 08:27:59;;;;;;;4.80;2.83;;;;;;;10.09;100.00;98533.22;5069463;28;20200;-78
2023/04/25 08:30:27;;;;;;;5.27;2.70;;;;;;;9.89;100.00;98534.66;5072560;28;20200;-78
2023/04/25 08:32:57;;;;;;;4.13;2.97;;;;;;;9.88;100.00;98538.25;5069557;28;20694;-78
2023/04/25 08:35:25;;;;;;;4.53;2.90;;;;;;;10.01;100.00;98540.84;5069459;28;20220;-77
2023/04/25 08:37:54;;;;;;;4.27;2.80;;;;;;;10.22;100.00;98534.03;5062969;28;20184;-78
2023/04/25 08:40:28;;;;;;;5.40;2.90;;;;;;;10.39;100.00;98539.91;5071320;28;20197;-78
2023/04/25 08:42:58;;;;;;;6.27;3.17;;;;;;;10.53;100.00;98545.91;5077995;28;20198;-78
2023/04/25 08:45:29;;;;;;;5.47;3.33;;;;;;;10.51;100.00;98552.25;5070621;28;20200;-78
2023/04/25 08:48:00;;;;;;;6.83;3.30;;;;;;;10.37;100.00;98552.44;5077050;28;20200;-78
2023/04/25 08:50:30;;;;;;;5.10;3.57;;;;;;;10.26;100.00;98555.84;5077757;28;20192;-78
2023/04/25 08:53:02;;;;;;;6.97;3.23;;;;;;;10.14;100.00;98556.72;5076566;28;20200;-78
2023/04/25 08:55:31;;;;;;;5.83;3.40;;;;;;;9.90;100.00;98569.88;5074199;28;20216;-78
2023/04/25 08:58:01;;;;;;;6.43;3.47;;;;;;;9.78;100.00;98573.41;5077439;28;20204;-77
2023/04/25 09:00:29;;;;;;;7.47;3.20;;;;;;;9.89;100.00;98581.41;5074925;28;20197;-78
2023/04/25 09:03:00;;;;;;;5.33;3.10;;;;;;;10.05;100.00;98582.03;5075580;28;20287;-78
2023/04/25 09:05:29;;;;;;;4.23;2.63;;;;;;;10.11;100.00;98588.66;5069448;28;20290;-78
2023/04/25 09:07:58;;;;;;;4.73;2.23;;;;;;;10.20;100.00;98593.31;5073579;28;20201;-78
2023/04/25 09:10:26;;;;;;;3.30;2.50;;;;;;;10.16;100.00;98590.03;5070657;28;20219;-78
2023/04/25 09:13:08;;;;;;;3.70;2.10;;;;;;;10.35;100.00;98600.19;5070393;28;20204;-78
2023/04/25 09:15:48;;;;;;;3.80;2.20;;;;;;;10.14;100.00;98607.84;5071238;28;20242;-78
2023/04/25 09:18:26;;;;;;;6.50;2.30;;;;;;;10.11;100.00;98605.38;5079544;28;20218;-78
2023/04/25 09:21:08;;;;;;;3.97;2.30;;;;;;;10.03;100.00;98605.06;5073817;28;20677;-78
2023/04/25 09:23:42;;;;;;;3.33;2.13;;;;;;;10.34;100.00;98609.09;5074168;28;20201;-78
2023/04/25 09:26:11;;;;;;;3.27;1.90;;;;;;;10.12;100.00;98611.53;5074566;28;20194;-78
2023/04/25 09:28:40;;;;;;;5.47;2.10;;;;;;;9.93;100.00;98623.41;5077940;28;20230;-78
2023/04/25 09:31:11;;;;;;;4.00;1.97;;;;;;;10.15;100.00;98621.91;5078183;28;20205;-78
2023/04/25 09:33:41;;;;;;;2.83;1.87;;;;;;;9.86;100.00;98616.03;5072620;28;20196;-78
2023/04/25 09:36:11;;;;;;;3.30;2.10;;;;;;;10.15;100.00;98630.69;5077093;28;20307;-78
2023/04/25 09:38:42;;;;;;;4.83;2.00;;;;;;;10.36;100.00;98627.50;5069001;28;20266;-78
2023/04/25 09:41:11;;;;;;;6.83;2.20;;;;;;;10.29;100.00;98646.47;5077211;28;20188;-78
2023/04/25 09:43:40;;;;;;;5.67;2.30;;;;;;;10.15;100.00;98637.78;5069214;28;20200;-78
2023/04/25 09:46:10;;;;;;;8.17;2.40;;;;;;;10.21;100.00;98645.28;5075974;28;20207;-78
2023/04/25 09:48:40;;;;;;;7.43;2.57;;;;;;;10.23;100.00;98646.91;5075405;28;20200;-79
2023/04/25 09:51:10;;;;;;;8.67;2.20;;;;;;;10.03;100.00;98647.41;5074272;28;20258;-78
2023/04/25 09:53:40;;;;;;;5.23;2.00;;;;;;;9.99;93.40;98651.25;5070575;28;20224;-78
2023/04/25 09:56:13;;;;;;;5.03;1.97;;;;;;;9.93;88.90;98657.78;5074990;28;20242;-79
2023/04/25 09:58:42;;;;;;;4.60;1.80;;;;;;;9.93;87.57;98655.13;5072259;28;20204;-78
2023/04/25 10:01:14;;;;;;;3.33;1.63;;;;;;;10.23;89.14;98657.50;5069604;28;20197;-78
2023/04/25 10:03:46;;;;;;;6.17;1.90;;;;;;;10.30;88.42;98655.25;5071524;28;20283;-78
2023/04/25 10:06:21;;;;;;;5.10;1.80;;;;;;;10.45;87.79;98661.25;5075775;28;20196;-78
2023/04/25 10:08:52;;;;;;;5.73;2.47;;;;;;;10.66;85.60;98658.88;5070863;28;20249;-78
2023/04/25 10:11:20;;;;;;;6.23;2.03;;;;;;;10.62;85.36;98649.47;5071463;28;20357;-78
2023/04/25 10:13:48;;;;;;;6.63;1.90;;;;;;;10.91;85.86;98650.84;5073281;28;20254;-78
2023/04/25 10:16:18;;;;;;;6.87;1.93;;;;;;;11.14;83.80;98651.78;5019379;28;20216;-78
2023/04/25 10:18:48;;;;;;;6.10;1.90;;;;;;;11.34;86.84;98661.72;5074081;28;20200;-78
2023/04/25 10:21:17;;;;;;;5.53;2.10;;;;;;;11.00;80.39;98665.19;5070902;28;20200;-78
2023/04/25 10:23:46;;;;;;;3.60;1.80;;;;;;;10.81;78.23;98665.72;5070142;28;20208;-78
2023/04/25 10:26:16;;;;;;;4.43;1.70;;;;;;;10.63;80.84;98670.53;5076280;28;20275;-78
2023/04/25 10:28:58;;;;;;;5.17;1.90;;;;;;;10.41;84.00;98681.78;5067876;28;20184;-78
2023/04/25 10:31:26;;;;;;;5.57;2.00;;;;;;;10.51;89.24;98669.59;5074667;28;20215;-78
2023/04/25 10:34:00;;;;;;;5.93;2.37;;;;;;;10.10;89.23;98675.13;5070035;28;20196;-78
2023/04/25 10:36:32;;;;;;;6.27;2.03;;;;;;;9.94;89.46;98680.66;5069399;28;20409;-79
2023/04/25 10:39:07;;;;;;;6.57;1.90;;;;;;;9.70;88.88;98682.34;5070415;28;20655;-78
2023/04/25 10:41:47;;;;;;;4.93;2.03;;;;;;;9.95;89.66;98685.00;5071290;28;20222;-78
2023/04/25 10:44:16;;;;;;;8.17;2.30;;;;;;;9.86;90.84;98692.72;5071168;28;20196;-78
2023/04/25 10:46:46;;;;;;;3.17;1.97;;;;;;;10.15;88.20;98680.13;5066266;28;20246;-78
2023/04/25 10:52:15;;;;;;;4.23;1.80;;;;;;;10.84;87.95;98687.53;5130099;27;21031;-77
2023/04/25 10:54:48;;;;;;;5.50;2.07;;;;;;;10.63;82.55;98686.44;5112053;28;20314;-77
2023/04/25 10:57:38;;;;;;;4.83;1.97;;;;;;;11.21;80.82;98682.19;5128532;27;20213;-78
2023/04/25 11:00:10;;;;;;;6.33;1.93;;;;;;;10.86;77.71;98687.41;5128073;27;20202;-78
2023/04/25 11:02:42;;;;;;;6.77;2.53;;;;;;;11.17;80.26;98686.84;5130703;27;20194;-78
2023/04/25 11:05:11;;;;;;;6.60;2.27;;;;;;;11.35;79.25;98689.94;5131028;27;20190;-78
2023/04/25 11:07:50;;;;;;;4.03;1.80;;;;;;;11.27;82.24;98696.75;5129164;27;20215;-78
2023/04/25 11:10:35;;;;;;;5.33;1.83;;;;;;;11.13;80.17;98705.75;5130637;27;20296;-78
2023/04/25 11:13:04;;;;;;;4.67;1.87;;;;;;;10.73;76.72;98698.06;5133229;27;20217;-77
2023/04/25 11:15:32;;;;;;;6.50;2.07;;;;;;;10.33;79.14;98702.69;5131308;27;20210;-78
2023/04/25 11:18:01;;;;;;;5.63;2.10;;;;;;;10.22;79.86;98699.94;5131729;27;20653;-77
2023/04/25 11:20:37;;;;;;;4.60;2.20;;;;;;;10.34;84.95;98687.66;5131639;27;20187;-78
2023/04/25 11:23:07;;;;;;;6.23;1.97;;;;;;;10.43;82.22;98700.25;5127683;27;20202;-78
2023/04/25 11:25:35;;;;;;;8.73;2.47;;;;;;;10.59;82.61;98695.53;5131546;27;20187;-78
2023/04/25 11:28:05;;;;;;;7.17;2.33;;;;;;;10.75;84.73;98687.34;5134861;27;20652;-78
2023/04/25 11:30:33;;;;;;;6.73;2.00;;;;;;;10.82;79.47;98693.91;5134757;27;20266;-77
2023/04/25 11:33:03;;;;;;;4.70;1.90;;;;;;;10.39;78.36;98691.66;5132772;27;20218;-78
2023/04/25 11:35:33;;;;;;;6.63;2.03;;;;;;;10.74;82.80;98696.25;5132835;27;20190;-78
2023/04/25 11:38:02;;;;;;;6.57;2.13;;;;;;;11.05;85.90;98695.69;5129952;27;20210;-78
2023/04/25 11:40:33;;;;;;;7.23;3.07;;;;;;;10.45;78.73;98704.47;5125371;27;20653;-78
2023/04/25 11:43:01;;;;;;;6.53;2.23;;;;;;;10.77;75.73;98701.31;5130375;27;20252;-78